Time;durP1;ratioP1;P1;durP2;ratioP2;P2;SDS_P1;SDS_P2;PMS_P1;PMS_P2;Temp;Humidity;BMP_temperature;BMP_pressure;BME280_temperature;BME280_humidity;BME280_pressure;Samples;Min_cycle;Max_cycle;Signal;HPM_P1;HPM_P2
2023/01/30 00:00:57;;;;;;;24.20;9.98;;;;;;;-6.04;100.00;97914.88;4960231;28;20055;-60
2023/01/30 00:03:24;;;;;;;18.52;9.95;;;;;;;-6.19;100.00;97912.56;4959623;28;20220;-60
2023/01/30 00:05:51;;;;;;;17.92;9.77;;;;;;;-6.11;100.00;97897.91;4958972;28;20133;-60
2023/01/30 00:08:18;;;;;;;19.00;9.57;;;;;;;-6.06;100.00;97893.91;4967253;28;20050;-61
2023/01/30 00:10:44;;;;;;;16.92;9.23;;;;;;;-5.90;100.00;97900.47;4961169;28;20043;-59
2023/01/30 00:13:13;;;;;;;19.23;10.60;;;;;;;-5.88;100.00;97902.00;4967436;28;20067;-61
2023/01/30 00:15:40;;;;;;;17.70;10.35;;;;;;;-6.00;100.00;97897.78;4963928;28;20122;-60
2023/01/30 00:18:07;;;;;;;14.93;8.85;;;;;;;-5.99;100.00;97888.91;4963715;28;20459;-60
2023/01/30 00:20:34;;;;;;;18.92;8.57;;;;;;;-5.96;100.00;97895.69;4959355;28;20046;-59
2023/01/30 00:23:01;;;;;;;17.52;9.60;;;;;;;-5.93;100.00;97898.06;4960179;28;20066;-59
2023/01/30 00:25:27;;;;;;;17.35;9.27;;;;;;;-5.83;100.00;97890.19;4961781;28;20061;-57
2023/01/30 00:27:55;;;;;;;16.60;8.40;;;;;;;-5.81;100.00;97882.97;4965019;28;20074;-59
2023/01/30 00:30:22;;;;;;;16.08;7.82;;;;;;;-5.84;100.00;97872.69;4961235;28;20051;-60
2023/01/30 00:32:53;;;;;;;16.63;8.20;;;;;;;-5.84;100.00;97876.16;4960000;28;20050;-61
2023/01/30 00:35:20;;;;;;;19.20;10.50;;;;;;;-5.90;100.00;97871.44;4963471;28;20047;-60
2023/01/30 00:37:46;;;;;;;16.65;9.52;;;;;;;-6.01;100.00;97867.13;4960771;28;20051;-59
2023/01/30 00:40:13;;;;;;;15.25;8.02;;;;;;;-5.92;100.00;97881.28;4951992;28;20402;-59
2023/01/30 00:48:10;;;;;;;14.07;9.13;;;;;;;-5.93;100.00;97904.16;4956979;28;20126;-60
2023/01/30 00:50:42;;;;;;;17.85;9.75;;;;;;;-5.76;100.00;97912.41;4962000;28;20035;-60
2023/01/30 00:53:12;;;;;;;14.48;8.20;;;;;;;-6.08;100.00;97926.66;4960822;28;20094;-59
2023/01/30 00:55:39;;;;;;;18.98;9.52;;;;;;;-6.27;100.00;97946.66;4958825;28;20061;-60
2023/01/30 00:58:06;;;;;;;15.15;8.25;;;;;;;-6.51;100.00;97952.19;4955939;28;20168;-60
2023/01/30 01:00:33;;;;;;;13.60;8.15;;;;;;;-6.55;100.00;97964.81;4964986;28;20065;-56
2023/01/30 01:02:59;;;;;;;17.48;9.05;;;;;;;-6.52;100.00;97967.19;4961806;28;20047;-57
2023/01/30 01:05:26;;;;;;;17.00;9.25;;;;;;;-6.68;100.00;97950.03;4963280;28;20489;-58
2023/01/30 01:07:54;;;;;;;15.85;7.95;;;;;;;-6.88;100.00;97940.28;4956689;28;20074;-60
2023/01/30 01:10:22;;;;;;;15.00;9.02;;;;;;;-6.63;100.00;97943.53;4953594;28;20039;-59
2023/01/30 01:12:51;;;;;;;19.27;8.48;;;;;;;-6.40;100.00;97942.44;4952469;28;20044;-60
2023/01/30 01:15:18;;;;;;;16.05;8.98;;;;;;;-6.36;100.00;97947.44;4962120;28;20541;-60
2023/01/30 01:17:47;;;;;;;16.23;8.38;;;;;;;-6.17;100.00;97944.91;4974700;28;20039;-61
2023/01/30 01:20:15;;;;;;;15.18;8.73;;;;;;;-6.33;100.00;97945.41;4958161;28;20114;-61
2023/01/30 01:22:42;;;;;;;15.07;8.32;;;;;;;-6.38;100.00;97936.22;4945833;28;20054;-60
2023/01/30 01:25:09;;;;;;;16.42;8.95;;;;;;;-6.35;100.00;97936.78;4961041;28;20134;-60
2023/01/30 01:27:37;;;;;;;17.58;10.63;;;;;;;-6.04;100.00;97954.41;4964986;28;20034;-61
2023/01/30 01:30:05;;;;;;;17.08;8.88;;;;;;;-6.14;100.00;97939.38;4961793;28;20658;-61
2023/01/30 01:32:32;;;;;;;15.88;8.70;;;;;;;-6.47;100.00;97937.81;4963201;28;20077;-61
2023/01/30 01:35:00;;;;;;;16.00;8.95;;;;;;;-6.20;100.00;97934.63;4962792;28;20039;-61
2023/01/30 01:37:26;;;;;;;18.90;9.70;;;;;;;-6.11;100.00;97942.72;4970606;28;20514;-61
2023/01/30 01:42:39;;;;;;;19.58;9.88;;;;;;;-6.40;100.00;97937.19;4974591;28;20399;-61
2023/01/30 01:45:11;;;;;;;19.38;8.82;;;;;;;-6.34;100.00;97943.69;4961908;28;20694;-61
2023/01/30 01:48:00;;;;;;;14.82;8.05;;;;;;;-6.31;100.00;97932.91;4962389;28;20067;-60
2023/01/30 01:50:41;;;;;;;17.80;8.80;;;;;;;-6.35;100.00;97914.88;4961160;28;20122;-61
2023/01/30 01:53:10;;;;;;;16.17;8.48;;;;;;;-6.31;100.00;97911.81;4952386;28;20058;-60
2023/01/30 01:55:39;;;;;;;16.02;7.78;;;;;;;-5.88;100.00;97933.63;4949854;28;20471;-60
2023/01/30 01:58:17;;;;;;;19.27;8.75;;;;;;;-5.81;100.00;97941.00;4970623;28;20057;-60
2023/01/30 02:00:47;;;;;;;18.90;8.68;;;;;;;-6.03;100.00;97935.81;4956772;28;20625;-60
2023/01/30 02:03:22;;;;;;;14.35;7.85;;;;;;;-6.17;100.00;97937.00;4952703;28;20150;-60
2023/01/30 02:05:52;;;;;;;18.55;9.25;;;;;;;-6.24;100.00;97920.03;4955713;28;20047;-59
2023/01/30 02:08:23;;;;;;;17.33;8.98;;;;;;;-6.21;100.00;97922.41;4954263;28;20999;-60
2023/01/30 02:11:08;;;;;;;18.52;9.75;;;;;;;-6.14;100.00;97922.72;4954773;28;20062;-60
2023/01/30 02:13:36;;;;;;;17.90;9.63;;;;;;;-6.22;100.00;97901.47;4965782;28;20034;-60
2023/01/30 02:16:05;;;;;;;17.98;9.02;;;;;;;-6.30;100.00;97894.22;4957066;28;20046;-60
2023/01/30 02:18:34;;;;;;;18.83;9.07;;;;;;;-6.17;100.00;97901.91;4960062;28;20149;-61
2023/01/30 02:21:38;;;;;;;16.33;9.02;;;;;;;-6.07;100.00;97891.41;4958046;28;20073;-59
2023/01/30 02:24:25;;;;;;;13.88;8.15;;;;;;;-6.21;100.00;97896.06;4952575;28;20051;-57
2023/01/30 02:27:04;;;;;;;16.92;8.88;;;;;;;-6.19;100.00;97912.56;4964533;28;20054;-59
2023/01/30 02:29:52;;;;;;;19.00;9.57;;;;;;;-6.31;100.00;97913.63;4957299;28;20046;-60
2023/01/30 02:32:41;;;;;;;14.60;6.82;;;;;;;-6.44;100.00;97916.47;4962359;28;20339;-60
2023/01/30 02:35:54;;;;;;;15.63;8.93;;;;;;;-6.59;100.00;97877.31;4946492;28;20066;-58
2023/01/30 02:39:08;;;;;;;15.63;9.13;;;;;;;-6.35;100.00;97851.63;4943823;28;20134;-60
2023/01/30 02:42:02;;;;;;;16.42;7.60;;;;;;;-5.94;100.00;97878.78;4956195;28;20045;-58
2023/01/30 02:44:43;;;;;;;16.42;8.48;;;;;;;-5.51;100.00;97870.66;4952694;28;20486;-58
2023/01/30 02:47:35;;;;;;;16.38;8.45;;;;;;;-5.30;100.00;97872.38;4952587;28;20141;-60
2023/01/30 02:50:24;;;;;;;16.85;9.23;;;;;;;-5.16;100.00;97877.22;4965237;28;20051;-59
2023/01/30 02:52:52;;;;;;;18.48;9.48;;;;;;;-5.23;100.00;97845.25;4968878;28;20066;-58
2023/01/30 02:55:22;;;;;;;16.80;9.75;;;;;;;-5.18;100.00;97841.38;4955571;28;20290;-59
2023/01/30 02:57:49;;;;;;;19.03;10.97;;;;;;;-5.18;100.00;97841.38;4969229;28;20082;-59
2023/01/30 03:00:22;;;;;;;16.08;9.07;;;;;;;-5.00;100.00;97831.78;4958422;28;20292;-58
2023/01/30 03:03:07;;;;;;;17.33;8.35;;;;;;;-4.74;100.00;97819.75;4951306;28;20046;-59
2023/01/30 03:05:43;;;;;;;15.57;7.43;;;;;;;-4.63;100.00;97811.66;4963381;28;20126;-59
2023/01/30 03:08:49;;;;;;;14.65;8.52;;;;;;;-4.52;100.00;97780.75;4955509;28;20134;-56
2023/01/30 03:11:16;;;;;;;18.58;8.90;;;;;;;-4.35;100.00;97760.63;4954273;28;20042;-59
2023/01/30 03:14:08;;;;;;;14.65;7.90;;;;;;;-4.19;100.00;97757.34;4953956;28;20138;-59
2023/01/30 03:16:39;;;;;;;15.50;7.63;;;;;;;-3.99;100.00;97742.19;4948537;28;20502;-59
2023/01/30 03:19:11;;;;;;;11.18;6.20;;;;;;;-3.78;100.00;97738.41;4955288;28;20039;-60
2023/01/30 03:21:43;;;;;;;10.68;6.50;;;;;;;-3.68;99.74;97722.47;4957583;28;20134;-60
2023/01/30 03:24:11;;;;;;;11.35;6.38;;;;;;;-3.54;98.49;97695.44;4958286;28;20421;-59
2023/01/30 03:27:02;;;;;;;12.52;6.38;;;;;;;-3.47;97.47;97681.59;4950420;28;20112;-59
2023/01/30 03:29:28;;;;;;;15.77;9.57;;;;;;;-3.45;96.83;97675.16;4957049;28;20077;-60
2023/01/30 03:31:55;;;;;;;11.40;6.15;;;;;;;-3.32;95.97;97689.81;4950653;28;20062;-58
2023/01/30 03:34:22;;;;;;;9.63;5.13;;;;;;;-3.23;95.53;97707.41;4953621;28;20553;-60
2023/01/30 03:36:49;;;;;;;9.80;4.85;;;;;;;-3.21;95.56;97718.66;4957340;28;20614;-58
2023/01/30 03:39:15;;;;;;;8.57;5.20;;;;;;;-3.17;95.28;97738.56;4968688;28;20039;-59
2023/01/30 03:41:42;;;;;;;13.07;7.40;;;;;;;-3.42;96.21;97732.28;4954344;28;20039;-59
2023/01/30 03:44:08;;;;;;;13.32;6.40;;;;;;;-3.52;96.76;97745.59;4955058;28;20043;-60
2023/01/30 03:46:35;;;;;;;12.60;7.22;;;;;;;-3.44;96.27;97743.00;4954096;28;20532;-59
2023/01/30 03:49:02;;;;;;;14.55;7.88;;;;;;;-3.46;96.31;97744.16;4956942;28;20078;-58
2023/01/30 03:51:29;;;;;;;12.25;6.72;;;;;;;-3.53;96.97;97751.88;4972077;28;20138;-60
2023/01/30 03:53:55;;;;;;;12.40;6.10;;;;;;;-3.50;96.98;97753.38;4950657;28;20545;-56
2023/01/30 03:56:22;;;;;;;12.35;7.20;;;;;;;-3.44;96.63;97755.41;4956825;28;20683;-58
2023/01/30 03:58:48;;;;;;;13.65;7.60;;;;;;;-3.64;97.58;97739.72;4954317;28;20077;-60
2023/01/30 04:01:19;;;;;;;16.13;9.27;;;;;;;-3.61;97.60;97744.66;4955379;28;20051;-58
2023/01/30 04:03:46;;;;;;;16.08;7.65;;;;;;;-3.60;97.59;97751.66;4959654;28;20517;-60
2023/01/30 04:06:13;;;;;;;17.30;8.43;;;;;;;-3.57;97.33;97758.47;4959519;28;20069;-59
2023/01/30 04:08:40;;;;;;;14.50;7.90;;;;;;;-3.43;96.81;97762.38;4960032;28;20046;-56
2023/01/30 04:11:12;;;;;;;11.57;6.10;;;;;;;-3.39;96.55;97758.44;4955686;28;20045;-60
2023/01/30 04:13:38;;;;;;;14.95;9.07;;;;;;;-3.38;97.31;97741.56;4971400;28;20088;-60
2023/01/30 04:16:22;;;;;;;10.85;5.75;;;;;;;-3.22;96.96;97755.91;4956865;28;20046;-60
2023/01/30 04:19:07;;;;;;;10.93;6.03;;;;;;;-3.11;95.80;97757.47;4960367;28;20054;-59
2023/01/30 04:21:34;;;;;;;14.00;7.95;;;;;;;-3.21;96.95;97754.94;4960413;28;20047;-60
2023/01/30 04:24:01;;;;;;;15.07;8.10;;;;;;;-3.23;97.16;97744.50;4959218;28;20714;-60
2023/01/30 04:26:28;;;;;;;16.05;7.88;;;;;;;-3.28;97.33;97747.59;4957161;28;20106;-60
2023/01/30 04:28:55;;;;;;;10.35;5.18;;;;;;;-3.15;96.70;97746.38;4959923;28;20461;-60
2023/01/30 04:31:21;;;;;;;12.35;5.88;;;;;;;-2.93;95.63;97737.06;4961687;28;20043;-60
2023/01/30 04:34:11;;;;;;;13.48;8.93;;;;;;;-3.09;96.60;97732.50;4956798;28;20058;-60
2023/01/30 04:36:38;;;;;;;14.73;7.53;;;;;;;-3.09;97.07;97731.66;4962185;28;20039;-60
2023/01/30 04:39:04;;;;;;;13.38;7.97;;;;;;;-3.07;96.86;97724.38;4959711;28;20545;-59
2023/01/30 04:41:32;;;;;;;10.70;6.22;;;;;;;-2.99;96.88;97731.56;4970422;28;20035;-58
2023/01/30 04:44:00;;;;;;;11.85;6.75;;;;;;;-2.88;95.82;97726.84;4963655;28;20097;-59
2023/01/30 04:46:36;;;;;;;10.93;6.63;;;;;;;-2.84;95.94;97756.50;4961548;28;20447;-58
2023/01/30 04:49:02;;;;;;;12.38;6.72;;;;;;;-2.72;95.20;97749.13;4957441;28;20047;-60
2023/01/30 04:51:29;;;;;;;16.80;8.75;;;;;;;-2.78;96.21;97749.72;4956494;28;20503;-60
2023/01/30 04:53:57;;;;;;;14.10;7.78;;;;;;;-2.80;95.53;97749.06;4955067;28;20054;-59
2023/01/30 04:56:24;;;;;;;13.07;8.05;;;;;;;-2.80;95.97;97741.13;4962818;28;20043;-59
2023/01/30 04:58:51;;;;;;;12.40;7.72;;;;;;;-2.76;96.04;97745.94;4959866;28;20047;-60
2023/01/30 05:01:22;;;;;;;14.65;9.38;;;;;;;-2.81;96.40;97742.94;4955769;28;20035;-60
2023/01/30 05:03:51;;;;;;;14.25;6.70;;;;;;;-2.72;96.22;97737.69;4974821;28;20130;-60
2023/01/30 05:06:18;;;;;;;12.32;7.18;;;;;;;-2.77;96.46;97738.97;4963889;28;20047;-59
2023/01/30 05:08:52;;;;;;;13.18;7.57;;;;;;;-2.75;96.03;97726.41;4957667;28;20465;-59
2023/01/30 05:11:19;;;;;;;12.85;7.15;;;;;;;-2.74;96.26;97716.63;4956357;28;20038;-59
2023/01/30 05:13:46;;;;;;;12.48;6.63;;;;;;;-2.68;96.46;97715.16;4963256;28;20043;-59
2023/01/30 05:16:14;;;;;;;11.77;6.72;;;;;;;-2.67;96.32;97704.41;4961934;28;20949;-60
2023/01/30 05:18:41;;;;;;;13.15;6.78;;;;;;;-2.62;96.00;97698.59;4959650;28;20120;-59
2023/01/30 05:21:11;;;;;;;13.90;6.72;;;;;;;-2.54;95.63;97701.28;4963296;28;20100;-57
2023/01/30 05:23:38;;;;;;;11.20;6.60;;;;;;;-2.45;95.11;97710.13;4959373;28;20085;-57
2023/01/30 05:26:05;;;;;;;11.10;4.97;;;;;;;-2.44;95.15;97710.97;4959838;28;20101;-60
2023/01/30 05:28:32;;;;;;;11.73;6.88;;;;;;;-2.48;95.05;97710.44;4956645;28;20051;-60
2023/01/30 05:31:10;;;;;;;13.48;6.43;;;;;;;-2.49;95.20;97701.66;4955896;28;20539;-60
2023/01/30 05:33:38;;;;;;;11.43;6.50;;;;;;;-2.35;94.32;97699.38;4954579;28;20590;-60
2023/01/30 05:36:05;;;;;;;13.10;6.70;;;;;;;-2.35;94.54;97696.75;4961825;28;20518;-61
2023/01/30 05:38:32;;;;;;;10.65;6.15;;;;;;;-2.36;94.68;97695.09;4961837;28;20802;-60
2023/01/30 05:41:00;;;;;;;12.32;6.10;;;;;;;-2.35;94.14;97699.38;4956713;28;20636;-61
2023/01/30 05:43:28;;;;;;;13.15;6.72;;;;;;;-2.38;94.26;97695.25;4958446;28;20114;-60
2023/01/30 05:45:56;;;;;;;13.35;7.53;;;;;;;-2.29;93.64;97706.69;4963955;28;20039;-60
2023/01/30 05:48:24;;;;;;;12.20;7.03;;;;;;;-2.30;93.96;97709.50;4956073;28;20047;-60
2023/01/30 05:50:51;;;;;;;12.52;6.03;;;;;;;-2.33;94.30;97696.59;4959138;28;20044;-60
2023/01/30 05:53:19;;;;;;;12.57;6.28;;;;;;;-2.40;94.94;97691.09;4953323;28;20066;-61
2023/01/30 05:55:53;;;;;;;10.18;5.72;;;;;;;-2.34;95.14;97693.09;4955308;28;20109;-60
2023/01/30 05:58:19;;;;;;;12.25;6.20;;;;;;;-2.22;94.30;97691.78;4952497;28;20620;-61
2023/01/30 06:00:46;;;;;;;11.32;6.30;;;;;;;-2.25;95.06;97691.31;4960340;28;20046;-61
2023/01/30 06:03:12;;;;;;;10.88;6.25;;;;;;;-2.24;94.91;97693.75;4957493;28;20047;-61
2023/01/30 06:05:39;;;;;;;10.77;5.78;;;;;;;-2.12;94.77;97693.47;4961278;28;20626;-61
2023/01/30 06:08:06;;;;;;;10.00;5.70;;;;;;;-2.19;94.69;97685.34;4952748;28;20062;-60
2023/01/30 06:10:34;;;;;;;10.70;6.30;;;;;;;-2.29;94.83;97682.81;4958826;28;20518;-61
2023/01/30 06:13:01;;;;;;;9.15;5.55;;;;;;;-2.32;94.77;97677.81;4956259;28;20443;-61
2023/01/30 06:15:27;;;;;;;11.00;5.72;;;;;;;-2.34;95.15;97677.19;4963228;28;20134;-61
2023/01/30 06:17:54;;;;;;;10.98;5.53;;;;;;;-2.34;94.71;97666.56;4959719;28;20541;-60
2023/01/30 06:20:20;;;;;;;9.38;5.10;;;;;;;-2.26;94.05;97674.53;4955598;28;20626;-59
2023/01/30 06:22:48;;;;;;;11.25;6.20;;;;;;;-2.22;93.45;97678.53;4957889;28;20145;-60
2023/01/30 06:25:14;;;;;;;11.13;5.30;;;;;;;-2.18;93.04;97681.69;4963571;28;20054;-60
2023/01/30 06:27:42;;;;;;;12.48;5.88;;;;;;;-2.15;93.24;97676.06;4954576;28;20058;-60
2023/01/30 06:30:09;;;;;;;9.70;5.30;;;;;;;-2.18;93.19;97676.38;4954144;28;20422;-60
2023/01/30 06:32:35;;;;;;;11.68;6.30;;;;;;;-2.15;93.66;97669.91;4955842;28;20468;-60
2023/01/30 06:35:02;;;;;;;10.82;5.18;;;;;;;-2.18;94.05;97660.47;4952454;28;20049;-60
2023/01/30 06:37:29;;;;;;;11.05;5.85;;;;;;;-2.14;94.57;97653.84;4957992;28;20055;-60
2023/01/30 06:39:55;;;;;;;11.20;5.97;;;;;;;-2.18;94.91;97664.94;4954003;28;20126;-56
2023/01/30 06:42:21;;;;;;;12.15;6.72;;;;;;;-2.15;94.74;97665.44;4952553;28;20070;-59
2023/01/30 06:44:48;;;;;;;14.57;5.90;;;;;;;-2.17;95.53;97675.41;4958402;28;20161;-60
2023/01/30 06:47:14;;;;;;;10.90;6.28;;;;;;;-2.13;95.51;97663.44;4956050;28;20708;-60
2023/01/30 06:49:41;;;;;;;10.63;5.70;;;;;;;-2.06;95.21;97662.81;4961886;28;20105;-58
2023/01/30 06:52:08;;;;;;;10.77;4.82;;;;;;;-2.05;95.22;97654.69;4952434;28;20070;-59
2023/01/30 06:54:34;;;;;;;12.50;6.05;;;;;;;-2.00;95.16;97646.22;4957975;28;20126;-59
2023/01/30 06:57:01;;;;;;;9.43;5.45;;;;;;;-1.84;94.59;97661.34;4961077;28;20121;-60
2023/01/30 06:59:27;;;;;;;12.25;5.40;;;;;;;-1.61;93.77;97658.84;4959969;28;20430;-55
2023/01/30 07:01:54;;;;;;;12.25;5.82;;;;;;;-1.68;93.13;97663.16;4959804;28;20101;-59
2023/01/30 07:04:20;;;;;;;9.20;5.20;;;;;;;-1.85;94.73;97673.78;4960100;28;20057;-59
2023/01/30 07:06:47;;;;;;;9.48;4.97;;;;;;;-1.84;94.31;97669.31;4950575;28;20114;-60
2023/01/30 07:09:13;;;;;;;9.18;4.85;;;;;;;-1.90;95.24;97667.28;4954905;28;20137;-56
2023/01/30 07:11:40;;;;;;;9.95;5.20;;;;;;;-1.87;95.53;97675.78;4954456;28;20047;-59
2023/01/30 07:14:08;;;;;;;10.50;5.38;;;;;;;-1.85;95.36;97684.38;4962148;28;20046;-58
2023/01/30 07:16:34;;;;;;;11.57;5.53;;;;;;;-1.94;96.22;97695.16;4961130;28;20063;-59
2023/01/30 07:19:01;;;;;;;10.48;5.75;;;;;;;-1.84;96.23;97703.81;4959044;28;20039;-58
2023/01/30 07:21:27;;;;;;;10.57;5.93;;;;;;;-1.72;95.54;97699.84;4961818;28;20539;-58
2023/01/30 07:23:54;;;;;;;12.60;5.97;;;;;;;-1.80;95.97;97706.97;4957744;28;20430;-59
2023/01/30 07:26:21;;;;;;;9.38;4.70;;;;;;;-1.66;95.62;97711.59;4953231;28;20060;-58
2023/01/30 07:28:47;;;;;;;10.70;5.63;;;;;;;-1.77;96.34;97715.41;4960658;28;20077;-59
2023/01/30 07:31:14;;;;;;;10.65;5.15;;;;;;;-1.77;96.15;97707.44;4961943;28;20192;-59
2023/01/30 07:33:40;;;;;;;12.48;5.75;;;;;;;-1.85;96.58;97712.75;4961018;28;20054;-58
2023/01/30 07:36:07;;;;;;;10.75;4.72;;;;;;;-1.84;96.80;97703.81;4956337;28;20039;-58
2023/01/30 07:38:33;;;;;;;8.95;5.00;;;;;;;-1.67;95.95;97702.00;4956370;28;20054;-60
2023/01/30 07:41:00;;;;;;;10.27;5.50;;;;;;;-1.75;97.08;97700.16;4952858;28;20146;-57
2023/01/30 07:43:26;;;;;;;9.18;5.13;;;;;;;-1.70;96.75;97713.78;4958596;28;20045;-60
2023/01/30 07:45:53;;;;;;;10.25;4.85;;;;;;;-1.55;95.69;97722.91;4958829;28;20498;-60
2023/01/30 07:48:19;;;;;;;10.52;5.38;;;;;;;-1.44;95.53;97733.19;4960795;28;20055;-58
2023/01/30 07:50:46;;;;;;;10.45;5.10;;;;;;;-1.33;94.75;97726.75;4955060;28;20058;-57
2023/01/30 07:53:15;;;;;;;9.07;5.00;;;;;;;-1.50;96.15;97728.56;4954350;28;20031;-58
2023/01/30 07:55:42;;;;;;;10.07;5.95;;;;;;;-1.55;96.90;97728.22;4952402;28;20047;-60
2023/01/30 07:58:15;;;;;;;11.23;6.25;;;;;;;-1.48;97.94;97706.13;4956199;28;20109;-59
2023/01/30 08:00:42;;;;;;;10.60;5.35;;;;;;;-1.45;97.64;97697.00;4959035;28;20039;-60
2023/01/30 08:03:14;;;;;;;11.20;5.53;;;;;;;-1.42;98.61;97694.03;4964468;28;20042;-58
2023/01/30 08:05:40;;;;;;;10.20;5.20;;;;;;;-1.34;99.13;97702.00;4963229;28;20043;-60
2023/01/30 08:08:07;;;;;;;11.88;6.00;;;;;;;-1.19;97.93;97702.13;4963846;28;20043;-60
2023/01/30 08:10:33;;;;;;;9.45;5.32;;;;;;;-1.16;99.00;97727.53;4957809;28;20066;-60
2023/01/30 08:13:00;;;;;;;7.93;3.90;;;;;;;-1.18;100.00;97741.00;4951929;28;20566;-60
2023/01/30 08:15:26;;;;;;;9.20;4.65;;;;;;;-1.01;100.00;97748.09;4964494;28;20042;-59
2023/01/30 08:17:56;;;;;;;8.32;4.53;;;;;;;-1.09;100.00;97743.66;4960053;28;20684;-60
2023/01/30 08:20:24;;;;;;;13.13;5.63;;;;;;;-1.14;100.00;97712.25;4963414;28;20043;-60
2023/01/30 08:22:51;;;;;;;8.82;5.38;;;;;;;-1.10;100.00;97702.13;4962302;28;20042;-60
2023/01/30 08:25:18;;;;;;;9.77;5.50;;;;;;;-0.84;100.00;97709.03;4959159;28;20046;-59
2023/01/30 08:27:44;;;;;;;9.48;5.28;;;;;;;-0.89;100.00;97685.63;4958252;28;20051;-58
2023/01/30 08:30:11;;;;;;;9.02;5.53;;;;;;;-0.89;100.00;97682.16;4957610;28;20039;-60
2023/01/30 08:32:38;;;;;;;12.70;6.10;;;;;;;-0.67;100.00;97675.25;4952736;28;20099;-61
2023/01/30 08:35:04;;;;;;;7.63;4.22;;;;;;;-0.36;99.02;97671.78;4963142;28;20138;-61
2023/01/30 08:37:31;;;;;;;7.20;4.13;;;;;;;-0.22;98.73;97667.53;4965125;28;20050;-59
2023/01/30 08:39:57;;;;;;;7.95;4.18;;;;;;;-0.11;99.29;97668.97;4964384;28;20067;-60
2023/01/30 08:42:24;;;;;;;7.72;3.90;;;;;;;0.06;99.22;97664.38;4958098;28;20114;-61
2023/01/30 08:44:50;;;;;;;7.57;3.88;;;;;;;0.14;99.72;97660.81;4959963;28;20082;-60
2023/01/30 08:47:17;;;;;;;6.82;3.40;;;;;;;0.23;99.83;97661.59;4958144;28;20497;-60
2023/01/30 08:49:43;;;;;;;5.43;2.70;;;;;;;0.29;100.00;97652.88;4959647;28;20070;-60
2023/01/30 08:52:10;;;;;;;6.30;3.10;;;;;;;0.40;99.84;97653.47;4956522;28;20127;-59
2023/01/30 08:54:36;;;;;;;5.45;2.58;;;;;;;0.55;100.00;97666.84;4956376;28;20143;-60
2023/01/30 08:57:03;;;;;;;6.82;2.50;;;;;;;0.82;98.82;97664.59;4964691;28;20043;-54
2023/01/30 08:59:29;;;;;;;5.35;2.67;;;;;;;1.03;97.54;97656.69;4963205;28;20081;-50
2023/01/30 09:01:56;;;;;;;4.55;2.42;;;;;;;0.94;96.54;97640.97;4961861;28;20422;-53
2023/01/30 09:04:23;;;;;;;6.97;2.90;;;;;;;0.81;97.04;97623.75;4963417;28;20049;-52
2023/01/30 09:06:50;;;;;;;8.38;3.30;;;;;;;0.64;97.31;97599.97;4961239;28;20043;-60
2023/01/30 09:09:16;;;;;;;6.28;3.28;;;;;;;0.64;97.94;97597.31;4957032;28;20070;-60
2023/01/30 09:11:43;;;;;;;6.32;3.33;;;;;;;0.66;98.49;97613.09;4960187;28;20044;-58
2023/01/30 09:14:09;;;;;;;4.30;2.20;;;;;;;1.00;97.74;97600.25;4961073;28;20421;-56
2023/01/30 09:16:36;;;;;;;7.45;4.03;;;;;;;0.64;97.45;97593.81;4950255;28;20043;-57
2023/01/30 09:19:02;;;;;;;6.10;3.42;;;;;;;0.56;98.60;97607.22;4957682;28;20051;-59
2023/01/30 09:21:30;;;;;;;4.97;2.35;;;;;;;0.79;99.53;97612.47;4963799;28;20074;-59
2023/01/30 09:23:57;;;;;;;5.85;2.40;;;;;;;0.88;98.88;97610.53;4963350;28;20078;-59
2023/01/30 09:26:23;;;;;;;4.95;2.95;;;;;;;0.90;98.21;97611.19;4963735;28;20045;-58
2023/01/30 09:28:50;;;;;;;5.15;2.50;;;;;;;0.99;98.09;97615.41;4960661;28;20081;-58
2023/01/30 09:31:16;;;;;;;5.82;2.70;;;;;;;1.09;97.57;97612.47;4960181;28;20125;-58
2023/01/30 09:33:43;;;;;;;4.82;2.50;;;;;;;1.12;98.59;97601.44;4962788;28;20101;-58
2023/01/30 09:36:09;;;;;;;4.10;1.77;;;;;;;1.31;97.71;97609.88;4952640;28;20138;-60
2023/01/30 09:38:36;;;;;;;5.47;1.90;;;;;;;1.47;96.57;97610.66;4958036;28;20057;-60
2023/01/30 09:41:05;;;;;;;3.95;1.88;;;;;;;1.52;96.99;97600.25;4956368;28;20071;-59
2023/01/30 09:44:01;;;;;;;3.78;1.90;;;;;;;1.49;97.04;97603.28;4952959;28;20036;-60
2023/01/30 09:46:37;;;;;;;3.53;1.73;;;;;;;1.65;96.40;97599.56;4961066;28;20431;-60
2023/01/30 09:49:21;;;;;;;2.50;1.45;;;;;;;1.59;96.81;97600.31;4960869;28;20041;-60
2023/01/30 09:52:06;;;;;;;2.70;1.45;;;;;;;1.74;96.21;97589.59;4954380;28;20114;-59
2023/01/30 09:54:36;;;;;;;3.70;1.63;;;;;;;1.63;97.77;97589.09;4965301;28;20116;-60
2023/01/30 09:57:06;;;;;;;4.00;1.63;;;;;;;1.63;97.67;97578.41;4957271;28;20039;-60
2023/01/30 10:00:14;;;;;;;3.63;1.73;;;;;;;1.84;98.06;97568.75;4959234;28;20562;-60
2023/01/30 10:03:05;;;;;;;1.73;0.80;;;;;;;2.13;97.96;97558.13;4957719;28;20114;-60
2023/01/30 10:05:43;;;;;;;3.10;0.90;;;;;;;2.32;97.33;97561.97;4953994;28;20530;-59
2023/01/30 10:08:48;;;;;;;2.45;0.98;;;;;;;2.36;97.50;97573.91;4955816;28;20050;-59
2023/01/30 10:11:37;;;;;;;0.73;0.55;;;;;;;2.47;97.43;97570.72;4958030;28;20047;-60
2023/01/30 10:14:29;;;;;;;0.70;0.47;;;;;;;2.57;96.19;97578.38;4953870;28;20058;-60
2023/01/30 10:17:06;;;;;;;0.63;0.45;;;;;;;2.66;95.88;97572.91;4955963;28;20658;-58
2023/01/30 10:19:58;;;;;;;0.80;0.50;;;;;;;2.74;96.18;97572.75;4959945;28;20053;-60
2023/01/30 10:23:12;;;;;;;1.90;0.55;;;;;;;2.76;96.06;97564.53;4957494;28;20069;-59
2023/01/30 10:25:50;;;;;;;0.85;0.50;;;;;;;2.76;95.86;97576.03;4923933;29;20044;-59
2023/01/30 10:28:39;;;;;;;1.25;0.50;;;;;;;2.67;96.28;97570.03;4923401;29;20538;-58
2023/01/30 10:31:13;;;;;;;1.38;0.60;;;;;;;2.66;96.56;97565.72;4946670;28;20059;-59
2023/01/30 10:33:51;;;;;;;0.60;0.45;;;;;;;2.69;96.87;97570.66;4953726;28;20047;-60
2023/01/30 10:36:26;;;;;;;0.88;0.40;;;;;;;2.76;96.38;97565.34;4956298;28;20133;-60
2023/01/30 10:38:55;;;;;;;1.15;0.50;;;;;;;2.78;96.84;97555.28;4952596;28;20070;-60
2023/01/30 10:41:43;;;;;;;1.00;0.50;;;;;;;2.87;96.15;97537.22;4954578;28;20054;-60
2023/01/30 10:44:12;;;;;;;0.85;0.52;;;;;;;2.83;96.34;97547.47;4958270;28;20097;-61
2023/01/30 10:46:54;;;;;;;1.42;0.75;;;;;;;2.92;96.00;97541.97;4957838;28;20470;-60
2023/01/30 10:49:43;;;;;;;0.55;0.40;;;;;;;2.82;96.03;97543.16;4963248;28;20074;-59
2023/01/30 10:52:43;;;;;;;0.68;0.40;;;;;;;2.85;95.82;97547.28;4961276;28;20054;-59
2023/01/30 10:55:30;;;;;;;0.35;0.35;;;;;;;2.82;96.08;97555.69;4955220;28;20126;-58
2023/01/30 10:58:09;;;;;;;4.97;0.70;;;;;;;2.76;96.74;97559.97;4961283;28;20118;-58
2023/01/30 11:00:41;;;;;;;0.98;0.45;;;;;;;2.85;95.71;97548.09;4951353;28;20042;-57
2023/01/30 11:03:19;;;;;;;0.30;0.30;;;;;;;2.86;95.91;97541.75;4955851;28;20059;-59
2023/01/30 11:05:51;;;;;;;0.52;0.40;;;;;;;2.83;96.30;97542.13;4959325;28;20122;-56
2023/01/30 11:08:18;;;;;;;1.23;0.50;;;;;;;3.02;95.38;97549.63;4951995;28;20114;-59
2023/01/30 11:10:44;;;;;;;0.75;0.40;;;;;;;2.85;96.19;97553.44;4962532;28;20049;-60
2023/01/30 11:13:26;;;;;;;0.77;0.40;;;;;;;2.85;96.52;97556.13;4953579;28;20043;-60
2023/01/30 11:15:57;;;;;;;1.30;0.60;;;;;;;2.86;96.03;97551.59;4959295;28;20129;-60
2023/01/30 11:18:24;;;;;;;1.05;0.60;;;;;;;2.93;95.50;97543.63;4954584;28;20498;-59
2023/01/30 11:21:27;;;;;;;0.47;0.30;;;;;;;2.92;95.54;97537.47;4956396;28;20130;-59
2023/01/30 11:24:18;;;;;;;0.75;0.32;;;;;;;2.98;95.78;97541.16;4952290;28;20097;-60
2023/01/30 11:26:45;;;;;;;1.30;0.57;;;;;;;2.83;97.22;97530.59;4956607;28;20051;-59
2023/01/30 11:29:32;;;;;;;2.78;0.57;;;;;;;2.75;98.66;97544.97;4957568;28;20126;-58
2023/01/30 11:32:21;;;;;;;0.32;0.32;;;;;;;2.80;98.00;97539.03;4965889;28;20042;-60
2023/01/30 11:35:18;;;;;;;1.00;0.50;;;;;;;2.80;97.80;97545.19;4957975;28;20047;-55
2023/01/30 11:37:44;;;;;;;1.00;0.50;;;;;;;2.80;97.60;97544.41;4955523;28;20324;-59
2023/01/30 11:40:17;;;;;;;0.45;0.38;;;;;;;2.66;98.80;97546.16;4965491;28;20039;-59
2023/01/30 11:42:46;;;;;;;0.68;0.50;;;;;;;2.72;98.42;97558.72;4959751;28;20093;-60
2023/01/30 11:45:13;;;;;;;0.95;0.30;;;;;;;2.87;97.76;97553.25;4957731;28;20036;-60
2023/01/30 11:47:50;;;;;;;0.20;0.20;;;;;;;2.82;97.44;97563.72;4956154;28;20086;-61
2023/01/30 11:50:30;;;;;;;1.50;0.50;;;;;;;2.78;98.80;97567.81;4963551;28;20036;-60
2023/01/30 11:53:06;;;;;;;1.00;0.38;;;;;;;2.75;98.67;97565.53;4963661;28;20043;-60
2023/01/30 11:55:36;;;;;;;1.00;0.53;;;;;;;2.77;98.34;97552.81;4962006;28;20050;-60